M I D A S
Marine Information and Data Acquisition System
Tripno 552 of the Zeeleeuw from 2003-08-20 07:26:36 to 2003-08-20 14:04:50
Back to CruiseResearch ActivitiesStationsMapUnderway DataData graphs

EquipmentUnitsComment
TimeDGPSUTC
LatitudeDGPSDM.mWGS84
LongitudeDGPSDM.mWGS84
HeadingGyrodeg 
SOGDGPSknotsSpeed over ground
COGDGPSdegCourse over ground
DepthEcho soundermeters200 kHz
Missing or incorrect values are displayed as -999
Navigation data collected by the RV Zeeleeuw from 2003-08-20 07:26:36 to 2003-08-20 14:04:50
Time Latitude Longitude Heading SOG COG Depth
2003-08-20 07:27:40 51°11.37 2°45.87 247.3 12.9 245 11.8
2003-08-20 07:28:40 51°11.28 2°45.55 246.7 13.4 244 11.6
2003-08-20 07:29:40 51°11.18 2°45.23 247.2 13.3 245 11.2
2003-08-20 07:30:40 51°11.09 2°44.92 247.2 13.3 244 11.2
2003-08-20 07:31:40 51°10.99 2°44.6 247.2 13.3 244 11
2003-08-20 07:32:40 51°10.9 2°44.27 254.2 13.4 251 11
2003-08-20 07:33:40 51°10.83 2°43.94 254 13.3 251 11
2003-08-20 07:34:40 51°10.77 2°43.59 259.5 13.4 257 11.2
2003-08-20 07:35:40 51°10.79 2°43.25 292.4 13.4 290 12
2003-08-20 07:36:40 51°10.87 2°42.91 292.6 13.5 290 13.1
2003-08-20 07:37:40 51°10.94 2°42.58 289.3 13.4 286 13.7
2003-08-20 07:38:40 51°10.99 2°42.23 287.9 13.4 285 13.7
2003-08-20 07:39:40 51°11.03 2°41.89 265.6 12.9 261 13.5
2003-08-20 07:40:40 51°10.92 2°41.6 234.6 13 232 13.6
2003-08-20 07:41:40 51°10.78 2°41.33 233.3 13.3 230 13.6
2003-08-20 07:42:40 51°10.64 2°41.06 231.6 13.2 229 13.5
2003-08-20 07:43:40 51°10.5 2°40.79 231.2 13.3 229 13.6
2003-08-20 07:44:40 51°10.35 2°40.52 231.4 13.4 230 13.3
2003-08-20 07:45:40 51°10.21 2°40.26 231.7 13.3 228 12.9
2003-08-20 07:46:40 51°10.06 2°39.99 231.5 13.5 229 12.3
2003-08-20 07:47:40 51°9.92 2°39.71 235 13.4 233 11.8
2003-08-20 07:48:40 51°9.8 2°39.42 248 13.4 247 11.5
2003-08-20 07:49:40 51°9.78 2°39.07 284.9 13.4 282 12.2
2003-08-20 07:50:40 51°9.88 2°38.75 306.9 13.6 302 14
2003-08-20 07:51:40 51°10.01 2°38.45 308.9 13.8 306 16.4
2003-08-20 07:52:40 51°10.1 2°38.13 280.9 13.1 274 17.6
2003-08-20 07:53:40 51°10.03 2°37.8 244.6 13.4 241 17.9
2003-08-20 07:54:40 51°9.91 2°37.51 237.1 13.4 234 17.8
2003-08-20 07:55:40 51°9.76 2°37.24 233 13.5 230 17.4
2003-08-20 07:56:40 51°9.62 2°36.96 233.7 13.5 230 16.8
2003-08-20 07:57:40 51°9.48 2°36.69 233.8 13.4 232 16.5
2003-08-20 07:58:40 51°9.35 2°36.4 245.6 13.4 243 16.7
2003-08-20 07:59:40 51°9.28 2°36.06 258.3 12.9 256 16.6
2003-08-20 08:00:40 51°9.3 2°35.85 300.6 6 297 17.6
2003-08-20 08:01:40 51°9.34 2°35.76 329.1 1.7 322 17.5
2003-08-20 08:02:40 51°9.36 2°35.75 357.2 1.3 345 17.7
2003-08-20 08:03:40 51°9.38 2°35.74 6.7 1 355 17
2003-08-20 08:04:40 51°9.39 2°35.74 11.6 0.9 359 17.2
2003-08-20 08:05:40 51°9.41 2°35.75 22.2 1.7 16 17.7
2003-08-20 08:06:40 51°9.44 2°35.77 35.6 2.1 28 18
2003-08-20 08:07:40 51°9.47 2°35.79 42.6 2.1 35 17.8
2003-08-20 08:08:40 51°9.5 2°35.83 53.6 2 45 17.7
2003-08-20 08:09:40 51°9.52 2°35.87 64.4 1.7 58 17.7
2003-08-20 08:10:40 51°9.53 2°35.9 73.8 1.5 66 17.8
2003-08-20 08:11:40 51°9.54 2°35.94 82.8 1.4 74 17.2
2003-08-20 08:12:40 51°9.54 2°35.98 93.2 1.4 89 17.4
2003-08-20 08:13:40 51°9.54 2°36.01 104.5 1.3 103 17.2
2003-08-20 08:14:40 51°9.53 2°36.04 114.6 1.3 118 17.8
2003-08-20 08:15:40 51°9.52 2°36.07 123.9 1.2 124 17.3
2003-08-20 08:16:40 51°9.5 2°36.1 138.1 1.3 143 17.2
2003-08-20 08:17:40 51°9.48 2°36.11 162 1.3 166 16.8
2003-08-20 08:18:40 51°9.46 2°36.11 187.1 1.3 188 16.9
2003-08-20 08:19:40 51°9.44 2°36.1 210.5 1.3 208 16.8
2003-08-20 08:20:40 51°9.42 2°36.08 232.9 1.3 230 17.2
2003-08-20 08:21:40 51°9.41 2°36.05 254.8 1.3 246 17.2
2003-08-20 08:22:40 51°9.41 2°36.02 275.9 1.3 263 17.2
2003-08-20 08:23:40 51°9.41 2°35.97 300.7 3.5 297 17
2003-08-20 08:24:40 51°9.51 2°35.81 325.1 11.8 320 17.3
2003-08-20 08:25:40 51°9.68 2°35.62 333.6 13.3 329 18.6
2003-08-20 08:26:40 51°9.88 2°35.43 333.9 13.9 328 18.2
2003-08-20 08:27:40 51°10.08 2°35.24 334.5 13.8 330 11.3
2003-08-20 08:28:40 51°10.3 2°35.19 13.9 13.6 11 11.5
2003-08-20 08:29:40 51°10.48 2°35.39 50.1 13.4 44 10.5
2003-08-20 08:30:40 51°10.63 2°35.64 51 13.6 45 10.7
2003-08-20 08:31:40 51°10.79 2°35.9 50.3 13.6 45 11.2
2003-08-20 08:32:40 51°10.95 2°36.16 50.7 13.6 45 11.7
2003-08-20 08:33:40 51°11.11 2°36.42 50.6 13.6 45 12.2
2003-08-20 08:34:40 51°11.26 2°36.68 51.3 13.6 46 12.6
2003-08-20 08:35:40 51°11.42 2°36.93 51 13.6 46 13.4
2003-08-20 08:36:40 51°11.58 2°37.19 50.3 13.6 45 14
2003-08-20 08:37:40 51°11.74 2°37.45 51 13.6 46 14.1
2003-08-20 08:38:40 51°11.89 2°37.71 50.9 13.6 46 14.1
2003-08-20 08:39:40 51°12.05 2°37.97 49.5 13.5 43 14
2003-08-20 08:40:40 51°12.25 2°38.15 30.5 13.6 24 13.9
2003-08-20 08:41:40 51°12.46 2°38.29 27.3 13.6 20 13.6
2003-08-20 08:42:40 51°12.67 2°38.41 25.5 13.6 19 13.6
2003-08-20 08:43:40 51°12.88 2°38.53 25.1 13.7 19 13.8
2003-08-20 08:44:40 51°13.1 2°38.65 25.9 13.6 20 14.2
2003-08-20 08:45:40 51°13.31 2°38.77 25.8 13.5 19 13.2
2003-08-20 08:46:40 51°13.52 2°38.89 25.5 13.6 18 14.2
2003-08-20 08:47:40 51°13.74 2°38.96 9.4 13.6 3 14.7
2003-08-20 08:48:40 51°13.97 2°38.96 2.9 13.5 354 13.6
2003-08-20 08:49:40 51°14.16 2°38.78 321.1 13.7 314 13
2003-08-20 08:50:40 51°14.24 2°38.45 274.7 13.8 268 17.7
2003-08-20 08:51:40 51°14.18 2°38.09 253.6 14.1 249 18.9
2003-08-20 08:52:40 51°14.09 2°37.75 249.3 14.2 246 19.7
2003-08-20 08:53:40 51°13.99 2°37.41 249.6 14.2 248 20.2
2003-08-20 08:54:40 51°13.9 2°37.06 248.9 14.1 246 20.8
2003-08-20 08:55:40 51°13.8 2°36.72 250 14.2 246 20.5
2003-08-20 08:56:40 51°13.71 2°36.37 250.1 14.2 247 19.4
2003-08-20 08:57:40 51°13.62 2°36.03 250.7 14.2 247 19.6
2003-08-20 08:58:40 51°13.53 2°35.68 249.9 14 247 17
2003-08-20 08:59:40 51°13.44 2°35.34 250.3 14 248 16.8
2003-08-20 09:00:40 51°13.34 2°35 249.6 13.9 246 16.6
2003-08-20 09:01:40 51°13.26 2°34.66 250.5 13.9 248 15.9
2003-08-20 09:02:40 51°13.17 2°34.32 251.3 13.9 249 15.2
2003-08-20 09:03:40 51°13.07 2°34.09 206.4 6.4 204 15.1
2003-08-20 09:04:40 51°13 2°34.1 141.1 1.4 155 16.2
2003-08-20 09:05:40 51°13 2°34.09 130.5 0.5 226 16.2
2003-08-20 09:06:40 51°12.99 2°34.09 132.6 1 148 16.1
2003-08-20 09:07:40 51°12.95 2°34.12 165.2 3.7 167 16.5
2003-08-20 09:08:40 51°12.88 2°34.13 179.1 3.8 181 17.2
2003-08-20 09:09:40 51°12.83 2°34.11 195.3 2.9 199 17.4
2003-08-20 09:10:40 51°12.79 2°34.08 192.9 3.8 194 17.6
2003-08-20 09:11:40 51°12.72 2°34.12 133.7 4.5 132 17.1
2003-08-20 09:12:40 51°12.72 2°34.23 67.2 4.4 60 15.9
2003-08-20 09:13:40 51°12.78 2°34.29 16.3 4.7 4 16.7
2003-08-20 09:14:40 51°12.87 2°34.21 322.2 8.8 316 17.5
2003-08-20 09:15:40 51°12.94 2°34.11 334.1 1.7 311 16.4
2003-08-20 09:16:40 51°12.95 2°34.09 350.8 0.6 296 16.6
2003-08-20 09:17:40 51°12.95 2°34.07 10.1 0.5 296 16.1
2003-08-20 09:18:40 51°12.95 2°34.06 26.7 0.3 296 -999
2003-08-20 09:19:40 51°12.96 2°34.05 38.1 0.4 277 16.3
2003-08-20 09:20:40 51°12.96 2°34.05 45.3 0.3 286 16.2
2003-08-20 09:21:40 51°12.96 2°34.04 48.9 0.3 272 15.8
2003-08-20 09:22:40 51°12.96 2°34.03 53 0.3 265 15.9
2003-08-20 09:23:40 51°12.96 2°34.02 55.4 0.3 269 15.7
2003-08-20 09:24:40 51°12.96 2°34.02 54.8 0.1 346 15.6
2003-08-20 09:25:40 51°12.96 2°34.04 88.5 1.1 82 15.9
2003-08-20 09:26:40 51°12.96 2°34.06 117.3 1.1 135 15.9
2003-08-20 09:27:40 51°12.94 2°34.08 148.6 1.4 170 16.2
2003-08-20 09:28:40 51°12.92 2°34.08 158.5 1.3 184 16.3
2003-08-20 09:29:40 51°12.9 2°34.07 161.3 1.2 188 16.6
2003-08-20 09:30:40 51°12.88 2°34.07 162.7 1.2 192 16.9
2003-08-20 09:31:40 51°12.86 2°34.06 163.6 1.1 196 16.9
2003-08-20 09:32:40 51°12.85 2°34.05 172.7 1.1 203 16.9
2003-08-20 09:33:40 51°12.83 2°34.04 184.1 1.1 214 16.8
2003-08-20 09:34:40 51°12.81 2°34.02 197 1.1 222 17.1
2003-08-20 09:35:40 51°12.8 2°34 208.4 1.1 231 17
2003-08-20 09:36:40 51°12.79 2°33.98 218.1 1.1 232 17
2003-08-20 09:37:40 51°12.78 2°33.95 225.8 1.1 234 16.9
2003-08-20 09:38:40 51°12.77 2°33.93 232 1 231 17
2003-08-20 09:39:40 51°12.76 2°33.91 238.6 1.6 240 17
2003-08-20 09:40:40 51°12.72 2°33.76 250 11.4 248 16.2
2003-08-20 09:41:40 51°12.63 2°33.43 250.1 14.1 248 14.9
2003-08-20 09:42:40 51°12.54 2°33.08 249.6 14.2 247 14.8
2003-08-20 09:43:40 51°12.45 2°32.73 249.9 14.2 247 15.4
2003-08-20 09:44:40 51°12.36 2°32.38 250.5 14.2 248 16.5
2003-08-20 09:45:40 51°12.27 2°32.04 250.4 14.1 247 18.5
2003-08-20 09:46:40 51°12.18 2°31.69 251.1 14.2 248 20.4
2003-08-20 09:47:40 51°12.09 2°31.35 251.3 14.2 249 21.6
2003-08-20 09:48:40 51°11.99 2°31 250.1 14.3 246 21.7
2003-08-20 09:49:40 51°11.9 2°30.65 249.6 14.3 247 22.7
2003-08-20 09:50:40 51°11.81 2°30.31 249.9 14.3 247 22.4
2003-08-20 09:51:40 51°11.72 2°29.95 250.1 14.4 247 22.7
2003-08-20 09:52:40 51°11.62 2°29.6 250.5 14.4 248 22.5
2003-08-20 09:53:40 51°11.53 2°29.25 249.7 14.6 247 23.6
2003-08-20 09:54:40 51°11.44 2°28.89 250.4 14.6 248 22.9
2003-08-20 09:55:40 51°11.34 2°28.54 251.1 14.8 249 22.7
2003-08-20 09:56:40 51°11.25 2°28.18 249.6 14.7 248 21.5
2003-08-20 09:57:40 51°11.16 2°27.81 249.6 14.8 248 20.5
2003-08-20 09:58:40 51°11.07 2°27.45 250 14.7 248 21.5
2003-08-20 09:59:40 51°10.98 2°27.09 250.6 14.7 248 20.9
2003-08-20 10:00:40 51°10.88 2°26.73 250.5 14.7 249 20.3
2003-08-20 10:01:40 51°10.81 2°26.36 256.9 14.7 254 19.2
2003-08-20 10:02:40 51°10.75 2°25.98 259.2 14.7 256 18.2
2003-08-20 10:03:40 51°10.71 2°25.6 265.2 14.7 261 16.6
2003-08-20 10:04:40 51°10.72 2°25.21 291.6 14.4 288 13.6
2003-08-20 10:05:40 51°10.86 2°24.92 332.2 13.9 324 17.6
2003-08-20 10:06:40 51°11.07 2°24.8 0.7 13.3 352 25.1
2003-08-20 10:07:40 51°11.29 2°24.79 8.8 13 2 24.5
2003-08-20 10:08:40 51°11.5 2°24.81 14.8 12.9 8 25.3
2003-08-20 10:09:40 51°11.71 2°24.86 15 13 8 24.9
2003-08-20 10:10:40 51°11.93 2°24.91 16.6 13.1 9 25.3
2003-08-20 10:11:40 51°12.15 2°24.96 16.3 13.2 10 25.3
2003-08-20 10:12:40 51°12.36 2°25.02 15 13.2 8 25.6
2003-08-20 10:13:40 51°12.58 2°25.07 15.3 13 8 26.1
2003-08-20 10:14:40 51°12.79 2°25.11 17.4 13 12 27.6
2003-08-20 10:15:40 51°13 2°25.18 20.1 12.7 13 27.9
2003-08-20 10:16:40 51°13.14 2°25.23 21.2 5.6 14 27.8
2003-08-20 10:17:40 51°13.17 2°25.24 53.5 0.3 54 27.8
2003-08-20 10:18:40 51°13.17 2°25.27 74.4 1.6 85 27.9
2003-08-20 10:19:40 51°13.18 2°25.31 72.1 1.5 84 27.6
2003-08-20 10:20:40 51°13.18 2°25.36 76.4 1.6 91 27.5
2003-08-20 10:21:40 51°13.17 2°25.4 79.7 1.6 99 26.6
2003-08-20 10:22:40 51°13.17 2°25.44 81.4 1.5 102 26.7
2003-08-20 10:23:40 51°13.17 2°25.48 81.9 1.5 102 27.4
2003-08-20 10:24:40 51°13.16 2°25.52 82.8 1.5 100 26.7
2003-08-20 10:25:40 51°13.16 2°25.56 83.7 1.5 103 26.1
2003-08-20 10:26:40 51°13.15 2°25.6 82 1.4 100 26.6
2003-08-20 10:27:40 51°13.15 2°25.63 78.8 1.3 92 26.6
2003-08-20 10:28:40 51°13.15 2°25.67 79.1 1.3 93 26.6
2003-08-20 10:29:40 51°13.15 2°25.7 80.1 1.4 93 26.5
2003-08-20 10:30:40 51°13.15 2°25.74 80.6 1.4 95 26.6
2003-08-20 10:31:40 51°13.14 2°25.78 82.5 1.4 99 26.5
2003-08-20 10:32:40 51°13.14 2°25.81 84.1 1.5 97 26.4
2003-08-20 10:33:40 51°13.14 2°25.85 85.2 1.4 103 26.3
2003-08-20 10:34:40 51°13.13 2°25.88 82.4 1.1 103 26.4
2003-08-20 10:35:40 51°13.13 2°25.92 63.7 2.2 61 26.6
2003-08-20 10:36:40 51°13.2 2°26.01 47.1 8.2 40 26.2
2003-08-20 10:37:40 51°13.31 2°26.18 50.9 10 45 25.7
2003-08-20 10:38:40 51°13.43 2°26.37 52.9 10.3 48 25.9
2003-08-20 10:39:40 51°13.56 2°26.61 55.5 12.4 50 25.9
2003-08-20 10:40:40 51°13.7 2°26.87 55.9 12.6 50 25.9
2003-08-20 10:41:40 51°13.83 2°27.12 55.6 12.5 50 25.8
2003-08-20 10:42:40 51°13.97 2°27.37 55.3 12.4 49 26.1
2003-08-20 10:43:40 51°14.1 2°27.62 55.3 12.5 50 26.2
2003-08-20 10:44:40 51°14.24 2°27.87 54.9 12.4 49 26.7
2003-08-20 10:45:40 51°14.37 2°28.12 55.1 12.5 50 26.7
2003-08-20 10:46:40 51°14.5 2°28.38 55.3 12.4 51 26.9
2003-08-20 10:47:40 51°14.64 2°28.63 55.1 12.4 49 27.1
2003-08-20 10:48:40 51°14.77 2°28.88 54.7 12.4 49 27
2003-08-20 10:49:40 51°14.9 2°29.13 54.4 12.4 47 26.9
2003-08-20 10:50:40 51°15.05 2°29.36 49.2 12.5 42 27.1
2003-08-20 10:51:40 51°15.2 2°29.59 50.3 12.4 45 27.2
2003-08-20 10:52:40 51°15.35 2°29.82 49.3 12.5 44 27.3
2003-08-20 10:53:40 51°15.51 2°30.05 48.6 12.6 43 27.2
2003-08-20 10:54:40 51°15.66 2°30.27 48.2 12.5 43 27.6
2003-08-20 10:55:40 51°15.81 2°30.49 47.9 12.5 42 27.9
2003-08-20 10:56:40 51°15.97 2°30.71 45.9 12.5 39 27.7
2003-08-20 10:57:40 51°16.13 2°30.92 46.6 12.5 41 27.7
2003-08-20 10:58:40 51°16.29 2°31.13 46.1 12.5 39 27.8
2003-08-20 10:59:40 51°16.45 2°31.34 46.2 12.4 40 27.3
2003-08-20 11:00:40 51°16.61 2°31.56 46.7 12.6 41 27.6
2003-08-20 11:01:40 51°16.77 2°31.77 46.6 12.5 40 26.7
2003-08-20 11:02:40 51°16.93 2°31.99 46.5 12.5 42 26.5
2003-08-20 11:03:40 51°17.08 2°32.21 46.4 12.4 41 26.3
2003-08-20 11:04:40 51°17.24 2°32.42 46.4 12.4 41 26
2003-08-20 11:05:40 51°17.4 2°32.63 46.4 12.2 40 26.9
2003-08-20 11:06:40 51°17.55 2°32.84 46.6 12.1 40 26.2
2003-08-20 11:07:40 51°17.7 2°33.05 46.5 12.2 41 25.2
2003-08-20 11:08:40 51°17.86 2°33.26 46.8 12.1 41 24.9
2003-08-20 11:09:40 51°18.01 2°33.46 47.2 12.1 40 24.6
2003-08-20 11:10:40 51°18.16 2°33.67 45.6 12.1 40 24.3
2003-08-20 11:11:40 51°18.32 2°33.87 45.6 12 38 21.4
2003-08-20 11:12:40 51°18.47 2°34.08 46.4 12 40 17.2
2003-08-20 11:13:40 51°18.63 2°34.29 46.2 12.1 40 21.2
2003-08-20 11:14:40 51°18.78 2°34.49 45.9 12.2 39 20.4
2003-08-20 11:15:40 51°18.94 2°34.7 46.2 12.3 39 19.1
2003-08-20 11:16:40 51°19.1 2°34.9 40.7 12.3 34 18.5
2003-08-20 11:17:40 51°19.27 2°35.07 40.7 12.3 33 18.2
2003-08-20 11:18:40 51°19.43 2°35.22 34 7.8 23 18.7
2003-08-20 11:19:40 51°19.52 2°35.25 21.6 4.2 3 16.7
2003-08-20 11:20:40 51°19.57 2°35.23 4.6 2.6 329 17.4
2003-08-20 11:21:40 51°19.6 2°35.2 17 1.6 326 16.8
2003-08-20 11:22:40 51°19.61 2°35.18 29.2 1.1 322 17.1
2003-08-20 11:23:40 51°19.62 2°35.17 39.1 0.7 309 16.8
2003-08-20 11:24:40 51°19.63 2°35.16 45.1 0.5 291 16.6
2003-08-20 11:25:40 51°19.63 2°35.14 46.8 0.5 286 16.5
2003-08-20 11:26:40 51°19.63 2°35.13 46.3 0.6 282 16.3
2003-08-20 11:27:40 51°19.63 2°35.11 45.8 0.6 280 15.9
2003-08-20 11:28:40 51°19.63 2°35.1 49.3 0.5 274 15.2
2003-08-20 11:29:40 51°19.64 2°35.09 50.5 0.5 279 14.7
2003-08-20 11:30:40 51°19.64 2°35.07 51 0.5 294 14
2003-08-20 11:31:40 51°19.64 2°35.06 54.4 0.4 306 14
2003-08-20 11:32:40 51°19.64 2°35.06 58.7 0.2 319 14.7
2003-08-20 11:33:40 51°19.65 2°35.06 67.5 0.1 311 14.7
2003-08-20 11:34:40 51°19.64 2°35.06 74.5 0.1 127 14.7
2003-08-20 11:35:40 51°19.64 2°35.06 75.3 0.2 116 14.1
2003-08-20 11:36:40 51°19.64 2°35.07 73.1 0.4 93 13.9
2003-08-20 11:37:40 51°19.64 2°35.08 70.8 0.3 67 14.6
2003-08-20 11:38:40 51°19.64 2°35.09 68.5 0.3 59 15.1
2003-08-20 11:39:40 51°19.68 2°35.17 64.1 8.7 57 16
2003-08-20 11:40:40 51°19.79 2°35.41 60 11.9 53 16.6
2003-08-20 11:41:40 51°19.9 2°35.67 65.7 11.9 61 18.6
2003-08-20 11:42:40 51°19.98 2°35.96 73.6 12 69 19.1
2003-08-20 11:43:40 51°20.05 2°36.26 73.3 12.1 70 19.7
2003-08-20 11:44:40 51°20.1 2°36.57 79.3 12.1 76 20.8
2003-08-20 11:45:40 51°20.15 2°36.88 79.1 12.1 77 21.4
2003-08-20 11:46:40 51°20.18 2°37.2 83 12.3 81 20.9
2003-08-20 11:47:40 51°20.21 2°37.52 86 12.3 84 22.5
2003-08-20 11:48:40 51°20.22 2°37.84 88.7 12.3 88 21.3
2003-08-20 11:49:40 51°20.23 2°38.17 87.6 12.4 85 23
2003-08-20 11:50:40 51°20.24 2°38.5 88 12.4 87 21.8
2003-08-20 11:51:40 51°20.25 2°38.83 88.2 12.4 87 22.8
2003-08-20 11:52:40 51°20.26 2°39.16 88.5 12.6 88 24.2
2003-08-20 11:53:40 51°20.27 2°39.5 88.4 12.6 88 25.8
2003-08-20 11:54:40 51°20.27 2°39.83 88.7 12.5 89 27.5
2003-08-20 11:55:40 51°20.28 2°40.17 87.9 12.6 87 27.6
2003-08-20 11:56:40 51°20.29 2°40.5 88.2 12.7 88 27.5
2003-08-20 11:57:40 51°20.3 2°40.83 89.2 12.5 87 28
2003-08-20 11:58:40 51°20.31 2°41.16 88.3 12.2 86 21.1
2003-08-20 11:59:40 51°20.33 2°41.49 88.6 12.3 87 20.6
2003-08-20 12:00:40 51°20.34 2°41.82 88.5 12.4 87 18.4
2003-08-20 12:01:40 51°20.36 2°42.15 87.9 12.5 86 18.5
2003-08-20 12:02:40 51°20.36 2°42.48 88.4 12.5 87 22
2003-08-20 12:03:40 51°20.37 2°42.81 88.9 12.5 88 22.5
2003-08-20 12:04:40 51°20.38 2°43.15 87.7 12.6 87 25.2
2003-08-20 12:05:40 51°20.39 2°43.48 87.4 12.5 87 26.5
2003-08-20 12:06:40 51°20.4 2°43.81 88.7 12.4 88 26.8
2003-08-20 12:07:40 51°20.42 2°44.14 88.4 12.3 87 26.4
2003-08-20 12:08:40 51°20.43 2°44.47 88.5 12.3 87 26.4
2003-08-20 12:09:40 51°20.44 2°44.8 88.7 12.3 88 22.9
2003-08-20 12:10:40 51°20.45 2°45.13 87.9 12.3 86 24.4
2003-08-20 12:11:40 51°20.46 2°45.45 87.8 11.5 86 23.5
2003-08-20 12:12:40 51°20.45 2°45.64 110.3 4.1 117 22.1
2003-08-20 12:13:40 51°20.42 2°45.69 120.4 1.9 147 20.7
2003-08-20 12:14:40 51°20.39 2°45.71 125.6 2 159 20.8
2003-08-20 12:15:40 51°20.37 2°45.73 121.8 1.6 156 20.2
2003-08-20 12:16:40 51°20.34 2°45.74 117.7 1.5 156 20.8
2003-08-20 12:17:40 51°20.32 2°45.76 117.2 1.5 157 21.1
2003-08-20 12:18:40 51°20.3 2°45.78 115.4 1.4 155 21.1
2003-08-20 12:19:40 51°20.28 2°45.79 113.7 1.3 155 21
2003-08-20 12:20:40 51°20.26 2°45.81 111.4 1.2 151 20.3
2003-08-20 12:21:40 51°20.24 2°45.82 109.4 1.2 150 19.4
2003-08-20 12:22:40 51°20.22 2°45.84 108.2 1.2 149 17.8
2003-08-20 12:23:40 51°20.21 2°45.86 107 1.2 148 16.6
2003-08-20 12:24:40 51°20.19 2°45.87 106.3 1.2 149 14.8
2003-08-20 12:25:40 51°20.17 2°45.89 105.4 1.2 150 14.2
2003-08-20 12:26:40 51°20.15 2°45.9 105.2 1.2 150 14
2003-08-20 12:27:40 51°20.13 2°45.92 105.2 1.1 151 14
2003-08-20 12:28:40 51°20.12 2°45.93 105.9 1.2 152 14.4
2003-08-20 12:29:40 51°20.1 2°45.95 105.8 1.1 149 14.6
2003-08-20 12:30:40 51°20.08 2°45.96 105.7 1.2 148 13.9
2003-08-20 12:31:40 51°20.07 2°45.99 105.7 2 128 13.9
2003-08-20 12:32:40 51°20.01 2°46.14 113.1 10.3 115 12.1
2003-08-20 12:33:40 51°19.93 2°46.43 114.1 12.7 116 14.4
2003-08-20 12:34:40 51°19.82 2°46.73 121 13.1 124 18.2
2003-08-20 12:35:40 51°19.7 2°47.01 119.9 13 122 20.6
2003-08-20 12:36:40 51°19.57 2°47.3 121.3 13.1 125 21.3
2003-08-20 12:37:40 51°19.46 2°47.59 120.5 13 123 21.3
2003-08-20 12:38:40 51°19.34 2°47.88 120.3 13 122 19.8
2003-08-20 12:39:40 51°19.22 2°48.18 120.4 13.1 122 17.8
2003-08-20 12:40:40 51°19.1 2°48.47 120.2 13.2 122 15.5
2003-08-20 12:41:40 51°18.99 2°48.77 119.2 13 120 13.8
2003-08-20 12:42:40 51°18.88 2°49.06 119.9 13.1 120 11.1
2003-08-20 12:43:40 51°18.76 2°49.36 120.1 13 121 10.2
2003-08-20 12:44:40 51°18.64 2°49.65 123.3 13.3 125 11.7
2003-08-20 12:45:40 51°18.51 2°49.94 122.5 13.4 125 13.3
2003-08-20 12:46:40 51°18.39 2°50.23 122.6 13.1 126 13.9
2003-08-20 12:47:40 51°18.26 2°50.52 121.9 13.2 125 13.4
2003-08-20 12:48:40 51°18.15 2°50.77 117.8 8.2 123 12.9
2003-08-20 12:49:40 51°18.11 2°50.85 103.1 1.8 145 12.6
2003-08-20 12:50:40 51°18.09 2°50.87 102.6 1.8 148 12.6
2003-08-20 12:51:40 51°18.07 2°50.89 102.8 1.7 152 12.6
2003-08-20 12:52:40 51°18.04 2°50.92 104.4 1.6 150 12.3
2003-08-20 12:53:40 51°18.02 2°50.93 106.5 1.7 157 12
2003-08-20 12:54:40 51°17.99 2°50.95 107.2 1.7 157 12.2
2003-08-20 12:55:40 51°17.96 2°50.97 105.6 1.6 152 11.9
2003-08-20 12:56:40 51°17.94 2°50.99 103 1.6 155 11.8
2003-08-20 12:57:40 51°17.92 2°51.01 101.1 1.5 152 11.6
2003-08-20 12:58:40 51°17.9 2°51.03 100.6 1.5 151 11.6
2003-08-20 12:59:40 51°17.87 2°51.05 100.8 1.4 151 11.1
2003-08-20 13:00:40 51°17.85 2°51.06 101.6 1.6 151 11.2
2003-08-20 13:01:40 51°17.83 2°51.08 100.8 1.5 149 10.6
2003-08-20 13:02:40 51°17.81 2°51.1 100.2 1.5 146 10.5
2003-08-20 13:03:40 51°17.79 2°51.12 101.6 1.5 148 10.4
2003-08-20 13:04:40 51°17.77 2°51.15 103.2 1.6 149 10.1
2003-08-20 13:05:40 51°17.75 2°51.17 104.3 1.6 149 10.1
2003-08-20 13:06:40 51°17.72 2°51.19 104.7 1.6 144 10.2
2003-08-20 13:07:40 51°17.69 2°51.25 110 6.6 117 10
2003-08-20 13:08:40 51°17.61 2°51.51 121.4 12.7 125 9.6
2003-08-20 13:09:40 51°17.49 2°51.8 121.5 13.4 124 9.9
2003-08-20 13:10:40 51°17.37 2°52.1 124.9 13.5 127 10.1
2003-08-20 13:11:40 51°17.23 2°52.39 124.8 13.4 127 9.9
2003-08-20 13:12:40 51°17.09 2°52.67 125 13.4 126 9.6
2003-08-20 13:13:40 51°16.96 2°52.96 127 13.5 128 8.3
2003-08-20 13:14:40 51°16.83 2°53.24 126.9 13.9 128 10.4
2003-08-20 13:15:40 51°16.7 2°53.52 126.6 11.1 128 11.5
2003-08-20 13:16:40 51°16.6 2°53.64 162.4 5.4 167 12
2003-08-20 13:17:40 51°16.52 2°53.63 190.7 3.8 194 12.2
2003-08-20 13:18:40 51°16.47 2°53.6 203.8 2.8 206 12.2
2003-08-20 13:19:40 51°16.44 2°53.56 225 2.5 219 12.3
2003-08-20 13:20:40 51°16.4 2°53.51 232.2 2.7 226 12.3
2003-08-20 13:21:40 51°16.37 2°53.46 238.6 2.8 229 12.3
2003-08-20 13:22:40 51°16.34 2°53.4 244.8 2.8 232 12.3
2003-08-20 13:23:40 51°16.31 2°53.34 249.5 2.8 233 12.3
2003-08-20 13:24:40 51°16.29 2°53.28 253.3 2.8 237 12.5
2003-08-20 13:25:40 51°16.26 2°53.22 256.8 2.7 240 12.5
2003-08-20 13:26:40 51°16.24 2°53.16 261 2.7 242 12.5
2003-08-20 13:27:40 51°16.22 2°53.09 264.6 2.7 244 12.5
2003-08-20 13:28:40 51°16.21 2°53.03 267.4 2.7 245 12.5
2003-08-20 13:29:40 51°16.19 2°52.96 268.8 2.6 248 12.6
2003-08-20 13:30:40 51°16.17 2°52.9 270.6 2.6 248 12.6
2003-08-20 13:31:40 51°16.16 2°52.84 273 2.5 252 12.6
2003-08-20 13:32:40 51°16.15 2°52.77 275.2 2.5 254 12.7
2003-08-20 13:33:40 51°16.14 2°52.71 277.3 2.6 254 12.7
2003-08-20 13:34:40 51°16.12 2°52.64 270.8 2.5 250 12.8
2003-08-20 13:35:40 51°16.1 2°52.58 245.6 2.6 232 12.9
2003-08-20 13:36:40 51°16.07 2°52.54 218.5 2.5 217 12.8
2003-08-20 13:37:40 51°16.04 2°52.51 192.7 2.4 202 12.8
2003-08-20 13:38:40 51°16 2°52.49 167 2.2 185 12.7
2003-08-20 13:39:40 51°15.97 2°52.5 141.5 1.9 169 12.7
2003-08-20 13:40:40 51°15.92 2°52.54 132 4.6 142 12.6
2003-08-20 13:41:40 51°15.84 2°52.65 135.7 9.5 139 12.3
2003-08-20 13:42:40 51°15.69 2°52.85 136.1 12.5 140 11.8
2003-08-20 13:43:40 51°15.53 2°53.07 135.8 12.5 139 11.4
2003-08-20 13:44:40 51°15.38 2°53.29 135.6 12.7 138 10.6
2003-08-20 13:45:40 51°15.22 2°53.52 135.1 12.5 137 9.9
2003-08-20 13:46:40 51°15.08 2°53.76 131.3 12.5 133 9.7
2003-08-20 13:47:40 51°14.94 2°54 132.3 12.5 134 9.3
2003-08-20 13:48:40 51°14.8 2°54.24 129.9 12.6 130 9.8
2003-08-20 13:49:40 51°14.66 2°54.5 131.1 12.6 132 9.8
2003-08-20 13:50:40 51°14.53 2°54.74 128 11.6 128 9.9
2003-08-20 13:51:40 51°14.41 2°54.97 128.9 11.3 128 10.7
2003-08-20 13:52:40 51°14.31 2°55.19 133 8.8 130 11.6
2003-08-20 13:53:40 51°14.22 2°55.32 143.3 6 140 11.2
2003-08-20 13:54:40 51°14.15 2°55.4 158.9 5 156 10.9
2003-08-20 13:55:40 51°14.08 2°55.45 158.5 4.7 156 10.5
2003-08-20 13:56:40 51°14.01 2°55.5 158.2 4.6 155 11
2003-08-20 13:57:40 51°13.93 2°55.55 158.3 4.8 155 11.2
2003-08-20 13:58:40 51°13.86 2°55.61 157.9 4.8 158 11
2003-08-20 13:59:40 51°13.79 2°55.66 152.4 4.7 149 11.1
2003-08-20 14:00:40 51°13.73 2°55.74 136.7 4.5 134 10.7
2003-08-20 14:01:40 51°13.69 2°55.83 128.3 4 125 10.8
2003-08-20 14:02:42 51°13.65 2°55.91 128.2 3.7 125 11.3
2003-08-20 14:03:42 51°13.62 2°55.99 120.9 3.2 118 11.2
2003-08-20 14:04:42 51°13.6 2°56.06 110.7 2.6 108 10.7